sensor_id;sensor_type;location;lat;lon;timestamp;P1;durP1;ratioP1;P2;durP2;ratioP2
16906;SDS011;8570;52.380;4.654;2024-03-06T00:03:28;22.77;;;18.60;;
16906;SDS011;8570;52.380;4.654;2024-03-06T00:08:31;26.83;;;17.93;;
16906;SDS011;8570;52.380;4.654;2024-03-06T00:13:33;23.23;;;18.17;;
16906;SDS011;8570;52.380;4.654;2024-03-06T00:18:35;23.80;;;17.10;;
16906;SDS011;8570;52.380;4.654;2024-03-06T00:23:38;23.73;;;17.93;;
16906;SDS011;8570;52.380;4.654;2024-03-06T00:28:40;23.67;;;17.87;;
16906;SDS011;8570;52.380;4.654;2024-03-06T00:33:42;28.47;;;18.83;;
16906;SDS011;8570;52.380;4.654;2024-03-06T00:38:46;24.80;;;18.83;;
16906;SDS011;8570;52.380;4.654;2024-03-06T00:43:47;20.30;;;17.03;;
16906;SDS011;8570;52.380;4.654;2024-03-06T00:48:53;20.07;;;17.43;;
16906;SDS011;8570;52.380;4.654;2024-03-06T00:53:57;25.63;;;18.30;;
16906;SDS011;8570;52.380;4.654;2024-03-06T00:59:01;29.70;;;18.07;;
16906;SDS011;8570;52.380;4.654;2024-03-06T01:04:05;24.17;;;18.50;;
16906;SDS011;8570;52.380;4.654;2024-03-06T01:09:08;25.43;;;18.20;;
16906;SDS011;8570;52.380;4.654;2024-03-06T01:14:10;27.50;;;18.10;;
16906;SDS011;8570;52.380;4.654;2024-03-06T01:19:12;24.10;;;18.80;;
16906;SDS011;8570;52.380;4.654;2024-03-06T01:24:18;22.13;;;17.67;;
16906;SDS011;8570;52.380;4.654;2024-03-06T01:29:20;25.23;;;18.40;;
16906;SDS011;8570;52.380;4.654;2024-03-06T01:34:22;25.70;;;19.77;;
16906;SDS011;8570;52.380;4.654;2024-03-06T01:39:25;27.43;;;20.10;;
16906;SDS011;8570;52.380;4.654;2024-03-06T01:44:27;29.93;;;21.73;;
16906;SDS011;8570;52.380;4.654;2024-03-06T01:49:29;30.33;;;21.97;;
16906;SDS011;8570;52.380;4.654;2024-03-06T01:54:33;32.27;;;23.73;;
16906;SDS011;8570;52.380;4.654;2024-03-06T01:59:35;37.70;;;28.17;;
16906;SDS011;8570;52.380;4.654;2024-03-06T02:04:40;37.33;;;27.80;;
16906;SDS011;8570;52.380;4.654;2024-03-06T02:09:43;41.23;;;27.77;;
16906;SDS011;8570;52.380;4.654;2024-03-06T02:14:47;36.33;;;25.80;;
16906;SDS011;8570;52.380;4.654;2024-03-06T02:19:49;38.20;;;28.60;;
16906;SDS011;8570;52.380;4.654;2024-03-06T02:24:52;40.33;;;28.60;;
16906;SDS011;8570;52.380;4.654;2024-03-06T02:29:54;39.83;;;29.00;;
16906;SDS011;8570;52.380;4.654;2024-03-06T02:34:56;42.23;;;31.40;;
16906;SDS011;8570;52.380;4.654;2024-03-06T02:40:03;44.47;;;33.03;;
16906;SDS011;8570;52.380;4.654;2024-03-06T02:45:09;43.07;;;32.37;;
16906;SDS011;8570;52.380;4.654;2024-03-06T02:50:11;45.67;;;32.20;;
16906;SDS011;8570;52.380;4.654;2024-03-06T02:55:17;45.77;;;31.97;;
16906;SDS011;8570;52.380;4.654;2024-03-06T03:00:19;46.33;;;32.30;;
16906;SDS011;8570;52.380;4.654;2024-03-06T03:05:21;43.87;;;30.93;;
16906;SDS011;8570;52.380;4.654;2024-03-06T03:10:25;40.63;;;31.47;;
16906;SDS011;8570;52.380;4.654;2024-03-06T03:15:27;39.17;;;28.77;;
16906;SDS011;8570;52.380;4.654;2024-03-06T03:20:30;40.60;;;29.37;;
16906;SDS011;8570;52.380;4.654;2024-03-06T03:25:34;39.33;;;29.73;;
16906;SDS011;8570;52.380;4.654;2024-03-06T03:30:36;39.77;;;30.50;;
16906;SDS011;8570;52.380;4.654;2024-03-06T03:35:38;41.73;;;30.87;;
16906;SDS011;8570;52.380;4.654;2024-03-06T03:40:42;39.63;;;28.57;;
16906;SDS011;8570;52.380;4.654;2024-03-06T03:45:44;39.83;;;29.43;;
16906;SDS011;8570;52.380;4.654;2024-03-06T03:50:46;41.67;;;30.30;;
16906;SDS011;8570;52.380;4.654;2024-03-06T03:55:52;38.63;;;30.53;;
16906;SDS011;8570;52.380;4.654;2024-03-06T04:00:54;39.60;;;29.90;;
16906;SDS011;8570;52.380;4.654;2024-03-06T04:05:56;38.70;;;29.17;;
16906;SDS011;8570;52.380;4.654;2024-03-06T04:11:00;41.50;;;30.23;;
16906;SDS011;8570;52.380;4.654;2024-03-06T04:16:02;41.57;;;30.17;;
16906;SDS011;8570;52.380;4.654;2024-03-06T04:21:04;38.97;;;29.47;;
16906;SDS011;8570;52.380;4.654;2024-03-06T04:26:08;40.13;;;29.30;;
16906;SDS011;8570;52.380;4.654;2024-03-06T04:31:10;37.57;;;28.80;;
16906;SDS011;8570;52.380;4.654;2024-03-06T04:36:12;39.97;;;29.00;;
16906;SDS011;8570;52.380;4.654;2024-03-06T04:41:16;39.43;;;31.00;;
16906;SDS011;8570;52.380;4.654;2024-03-06T04:46:20;41.13;;;32.53;;
16906;SDS011;8570;52.380;4.654;2024-03-06T04:51:22;46.30;;;32.47;;
16906;SDS011;8570;52.380;4.654;2024-03-06T04:56:37;40.87;;;31.40;;
16906;SDS011;8570;52.380;4.654;2024-03-06T05:01:39;45.80;;;33.47;;
16906;SDS011;8570;52.380;4.654;2024-03-06T05:06:41;42.97;;;32.80;;
16906;SDS011;8570;52.380;4.654;2024-03-06T05:11:44;47.73;;;34.10;;
16906;SDS011;8570;52.380;4.654;2024-03-06T05:16:46;52.27;;;35.43;;
16906;SDS011;8570;52.380;4.654;2024-03-06T05:21:48;45.00;;;34.00;;
16906;SDS011;8570;52.380;4.654;2024-03-06T05:26:53;42.00;;;32.50;;
16906;SDS011;8570;52.380;4.654;2024-03-06T05:31:55;47.37;;;34.87;;
16906;SDS011;8570;52.380;4.654;2024-03-06T05:36:57;45.10;;;33.73;;
16906;SDS011;8570;52.380;4.654;2024-03-06T05:42:03;48.03;;;35.70;;
16906;SDS011;8570;52.380;4.654;2024-03-06T05:47:05;47.23;;;33.83;;
16906;SDS011;8570;52.380;4.654;2024-03-06T05:52:12;48.30;;;34.97;;
16906;SDS011;8570;52.380;4.654;2024-03-06T05:57:19;45.93;;;35.20;;
16906;SDS011;8570;52.380;4.654;2024-03-06T06:02:28;44.77;;;34.50;;
16906;SDS011;8570;52.380;4.654;2024-03-06T06:07:32;48.87;;;35.70;;
16906;SDS011;8570;52.380;4.654;2024-03-06T06:12:36;46.20;;;34.33;;
16906;SDS011;8570;52.380;4.654;2024-03-06T06:17:37;47.03;;;35.30;;
16906;SDS011;8570;52.380;4.654;2024-03-06T06:22:39;47.30;;;33.83;;
16906;SDS011;8570;52.380;4.654;2024-03-06T06:27:43;45.67;;;34.93;;
16906;SDS011;8570;52.380;4.654;2024-03-06T06:32:45;47.33;;;35.77;;
16906;SDS011;8570;52.380;4.654;2024-03-06T06:37:47;46.80;;;36.37;;
16906;SDS011;8570;52.380;4.654;2024-03-06T06:42:54;49.43;;;37.23;;
16906;SDS011;8570;52.380;4.654;2024-03-06T06:47:57;49.33;;;36.43;;
16906;SDS011;8570;52.380;4.654;2024-03-06T06:52:59;51.87;;;37.67;;
16906;SDS011;8570;52.380;4.654;2024-03-06T06:58:03;53.63;;;39.83;;
16906;SDS011;8570;52.380;4.654;2024-03-06T07:03:05;51.97;;;38.30;;
16906;SDS011;8570;52.380;4.654;2024-03-06T07:08:17;48.73;;;38.30;;
16906;SDS011;8570;52.380;4.654;2024-03-06T07:13:20;51.30;;;38.30;;
16906;SDS011;8570;52.380;4.654;2024-03-06T07:18:22;51.10;;;38.43;;
16906;SDS011;8570;52.380;4.654;2024-03-06T07:23:23;52.27;;;39.40;;
16906;SDS011;8570;52.380;4.654;2024-03-06T07:28:27;54.20;;;39.53;;
16906;SDS011;8570;52.380;4.654;2024-03-06T07:33:28;52.87;;;38.47;;
16906;SDS011;8570;52.380;4.654;2024-03-06T07:38:34;51.83;;;40.07;;
16906;SDS011;8570;52.380;4.654;2024-03-06T07:43:37;48.30;;;39.07;;
16906;SDS011;8570;52.380;4.654;2024-03-06T07:48:41;53.37;;;39.33;;
16906;SDS011;8570;52.380;4.654;2024-03-06T07:53:44;54.73;;;41.03;;
16906;SDS011;8570;52.380;4.654;2024-03-06T07:58:47;51.33;;;39.83;;
16906;SDS011;8570;52.380;4.654;2024-03-06T08:03:52;52.53;;;39.47;;
16906;SDS011;8570;52.380;4.654;2024-03-06T08:08:54;53.30;;;40.03;;
16906;SDS011;8570;52.380;4.654;2024-03-06T08:13:58;51.53;;;39.13;;
16906;SDS011;8570;52.380;4.654;2024-03-06T08:19:00;56.40;;;39.37;;
16906;SDS011;8570;52.380;4.654;2024-03-06T08:24:02;54.90;;;42.27;;
16906;SDS011;8570;52.380;4.654;2024-03-06T08:29:05;52.07;;;40.70;;
16906;SDS011;8570;52.380;4.654;2024-03-06T08:34:07;50.90;;;41.43;;
16906;SDS011;8570;52.380;4.654;2024-03-06T08:39:09;50.57;;;40.93;;
16906;SDS011;8570;52.380;4.654;2024-03-06T08:44:15;55.03;;;40.97;;
16906;SDS011;8570;52.380;4.654;2024-03-06T08:49:16;53.73;;;41.23;;
16906;SDS011;8570;52.380;4.654;2024-03-06T08:54:18;54.87;;;42.00;;
16906;SDS011;8570;52.380;4.654;2024-03-06T08:59:22;50.77;;;39.20;;
16906;SDS011;8570;52.380;4.654;2024-03-06T09:04:24;45.87;;;36.40;;
16906;SDS011;8570;52.380;4.654;2024-03-06T09:09:25;46.90;;;35.83;;
16906;SDS011;8570;52.380;4.654;2024-03-06T09:14:30;44.60;;;37.10;;
16906;SDS011;8570;52.380;4.654;2024-03-06T09:19:32;43.90;;;35.07;;
16906;SDS011;8570;52.380;4.654;2024-03-06T09:24:34;45.73;;;34.30;;
16906;SDS011;8570;52.380;4.654;2024-03-06T09:29:39;45.23;;;33.57;;
16906;SDS011;8570;52.380;4.654;2024-03-06T09:34:41;42.67;;;33.20;;
16906;SDS011;8570;52.380;4.654;2024-03-06T09:39:44;44.87;;;33.67;;
16906;SDS011;8570;52.380;4.654;2024-03-06T09:44:48;43.67;;;33.50;;
16906;SDS011;8570;52.380;4.654;2024-03-06T09:49:50;43.83;;;32.37;;
16906;SDS011;8570;52.380;4.654;2024-03-06T09:54:54;40.75;;;31.35;;
16906;SDS011;8570;52.380;4.654;2024-03-06T09:59:58;41.92;;;30.67;;
16906;SDS011;8570;52.380;4.654;2024-03-06T10:05:00;38.60;;;30.00;;
16906;SDS011;8570;52.380;4.654;2024-03-06T10:10:03;31.67;;;25.08;;
16906;SDS011;8570;52.380;4.654;2024-03-06T10:15:07;30.40;;;25.38;;
16906;SDS011;8570;52.380;4.654;2024-03-06T10:20:18;29.08;;;24.48;;
16906;SDS011;8570;52.380;4.654;2024-03-06T10:25:21;25.30;;;21.27;;
16906;SDS011;8570;52.380;4.654;2024-03-06T10:30:25;20.55;;;16.65;;
16906;SDS011;8570;52.380;4.654;2024-03-06T10:35:27;22.50;;;17.80;;
16906;SDS011;8570;52.380;4.654;2024-03-06T10:40:30;19.27;;;15.20;;
16906;SDS011;8570;52.380;4.654;2024-03-06T10:45:40;21.92;;;17.48;;
16906;SDS011;8570;52.380;4.654;2024-03-06T10:50:46;20.40;;;15.48;;
16906;SDS011;8570;52.380;4.654;2024-03-06T10:55:50;21.67;;;14.50;;
16906;SDS011;8570;52.380;4.654;2024-03-06T11:00:54;16.17;;;13.60;;
16906;SDS011;8570;52.380;4.654;2024-03-06T11:05:58;16.55;;;12.73;;
16906;SDS011;8570;52.380;4.654;2024-03-06T11:16:28;13.85;;;12.35;;
16906;SDS011;8570;52.380;4.654;2024-03-06T11:21:33;15.52;;;12.55;;
16906;SDS011;8570;52.380;4.654;2024-03-06T11:26:35;16.58;;;12.93;;
16906;SDS011;8570;52.380;4.654;2024-03-06T11:31:38;15.38;;;11.85;;
16906;SDS011;8570;52.380;4.654;2024-03-06T11:36:40;14.52;;;11.55;;
16906;SDS011;8570;52.380;4.654;2024-03-06T11:41:46;16.98;;;13.40;;
16906;SDS011;8570;52.380;4.654;2024-03-06T11:46:56;17.73;;;13.23;;
16906;SDS011;8570;52.380;4.654;2024-03-06T11:52:00;16.38;;;14.05;;
16906;SDS011;8570;52.380;4.654;2024-03-06T11:57:03;16.30;;;10.68;;
16906;SDS011;8570;52.380;4.654;2024-03-06T12:02:08;14.52;;;11.73;;
16906;SDS011;8570;52.380;4.654;2024-03-06T12:07:11;15.70;;;12.93;;
16906;SDS011;8570;52.380;4.654;2024-03-06T12:12:13;14.85;;;12.60;;
16906;SDS011;8570;52.380;4.654;2024-03-06T12:17:16;13.18;;;10.93;;
16906;SDS011;8570;52.380;4.654;2024-03-06T12:22:18;13.55;;;11.73;;
16906;SDS011;8570;52.380;4.654;2024-03-06T12:27:22;10.90;;;9.80;;
16906;SDS011;8570;52.380;4.654;2024-03-06T12:32:25;13.15;;;11.60;;
16906;SDS011;8570;52.380;4.654;2024-03-06T12:37:29;12.70;;;10.25;;
16906;SDS011;8570;52.380;4.654;2024-03-06T12:42:32;12.88;;;11.32;;
16906;SDS011;8570;52.380;4.654;2024-03-06T12:47:35;11.20;;;9.23;;
16906;SDS011;8570;52.380;4.654;2024-03-06T12:52:37;9.45;;;8.32;;
16906;SDS011;8570;52.380;4.654;2024-03-06T12:57:39;11.52;;;8.13;;
16906;SDS011;8570;52.380;4.654;2024-03-06T13:02:43;13.77;;;9.52;;
16906;SDS011;8570;52.380;4.654;2024-03-06T13:07:45;12.45;;;11.10;;
16906;SDS011;8570;52.380;4.654;2024-03-06T13:12:47;14.15;;;12.10;;
16906;SDS011;8570;52.380;4.654;2024-03-06T13:17:50;12.35;;;11.13;;
16906;SDS011;8570;52.380;4.654;2024-03-06T13:22:52;9.57;;;7.70;;
16906;SDS011;8570;52.380;4.654;2024-03-06T13:27:56;9.55;;;7.30;;
16906;SDS011;8570;52.380;4.654;2024-03-06T13:33:00;7.82;;;6.88;;
16906;SDS011;8570;52.380;4.654;2024-03-06T13:38:02;9.57;;;6.65;;
16906;SDS011;8570;52.380;4.654;2024-03-06T13:43:04;9.20;;;7.82;;
16906;SDS011;8570;52.380;4.654;2024-03-06T13:48:13;9.40;;;7.72;;
16906;SDS011;8570;52.380;4.654;2024-03-06T13:53:16;11.20;;;7.75;;
16906;SDS011;8570;52.380;4.654;2024-03-06T13:58:18;10.55;;;8.05;;
16906;SDS011;8570;52.380;4.654;2024-03-06T14:03:21;12.43;;;9.27;;
16906;SDS011;8570;52.380;4.654;2024-03-06T14:08:24;9.98;;;7.78;;
16906;SDS011;8570;52.380;4.654;2024-03-06T14:13:26;12.65;;;7.18;;
16906;SDS011;8570;52.380;4.654;2024-03-06T14:18:29;8.43;;;6.00;;
16906;SDS011;8570;52.380;4.654;2024-03-06T14:23:31;6.05;;;5.03;;
16906;SDS011;8570;52.380;4.654;2024-03-06T14:28:33;6.10;;;5.50;;
16906;SDS011;8570;52.380;4.654;2024-03-06T14:33:36;12.43;;;10.95;;
16906;SDS011;8570;52.380;4.654;2024-03-06T14:38:39;8.43;;;7.53;;
16906;SDS011;8570;52.380;4.654;2024-03-06T14:43:40;6.25;;;5.50;;
16906;SDS011;8570;52.380;4.654;2024-03-06T14:48:44;7.07;;;5.05;;
16906;SDS011;8570;52.380;4.654;2024-03-06T14:53:46;7.40;;;5.10;;
16906;SDS011;8570;52.380;4.654;2024-03-06T14:58:47;6.03;;;5.18;;
16906;SDS011;8570;52.380;4.654;2024-03-06T15:03:51;8.63;;;6.13;;
16906;SDS011;8570;52.380;4.654;2024-03-06T15:08:52;6.53;;;5.82;;
16906;SDS011;8570;52.380;4.654;2024-03-06T15:13:55;20.02;;;16.48;;
16906;SDS011;8570;52.380;4.654;2024-03-06T15:18:58;23.73;;;15.13;;
16906;SDS011;8570;52.380;4.654;2024-03-06T15:24:03;7.78;;;6.47;;
16906;SDS011;8570;52.380;4.654;2024-03-06T15:29:05;12.60;;;6.80;;
16906;SDS011;8570;52.380;4.654;2024-03-06T15:34:11;8.05;;;6.00;;
16906;SDS011;8570;52.380;4.654;2024-03-06T15:39:13;17.70;;;10.45;;
16906;SDS011;8570;52.380;4.654;2024-03-06T15:44:15;12.25;;;9.98;;
16906;SDS011;8570;52.380;4.654;2024-03-06T15:49:22;12.13;;;10.68;;
16906;SDS011;8570;52.380;4.654;2024-03-06T15:54:25;15.98;;;12.85;;
16906;SDS011;8570;52.380;4.654;2024-03-06T15:59:27;20.10;;;14.55;;
16906;SDS011;8570;52.380;4.654;2024-03-06T16:04:32;18.23;;;14.05;;
16906;SDS011;8570;52.380;4.654;2024-03-06T16:09:33;15.55;;;13.82;;
16906;SDS011;8570;52.380;4.654;2024-03-06T16:14:35;17.40;;;13.45;;
16906;SDS011;8570;52.380;4.654;2024-03-06T16:19:39;20.42;;;15.38;;
16906;SDS011;8570;52.380;4.654;2024-03-06T16:24:41;14.85;;;12.27;;
16906;SDS011;8570;52.380;4.654;2024-03-06T16:29:43;15.50;;;12.80;;
16906;SDS011;8570;52.380;4.654;2024-03-06T16:34:47;17.33;;;13.00;;
16906;SDS011;8570;52.380;4.654;2024-03-06T16:39:49;16.08;;;13.85;;
16906;SDS011;8570;52.380;4.654;2024-03-06T16:44:51;19.58;;;14.63;;
16906;SDS011;8570;52.380;4.654;2024-03-06T16:49:54;19.67;;;14.80;;
16906;SDS011;8570;52.380;4.654;2024-03-06T16:54:56;18.30;;;14.05;;
16906;SDS011;8570;52.380;4.654;2024-03-06T16:59:58;21.05;;;15.90;;
16906;SDS011;8570;52.380;4.654;2024-03-06T17:05:01;18.80;;;15.68;;
16906;SDS011;8570;52.380;4.654;2024-03-06T17:10:04;23.35;;;17.27;;
16906;SDS011;8570;52.380;4.654;2024-03-06T17:15:08;23.98;;;19.40;;
16906;SDS011;8570;52.380;4.654;2024-03-06T17:20:12;25.10;;;19.30;;
16906;SDS011;8570;52.380;4.654;2024-03-06T17:25:14;24.33;;;19.08;;
16906;SDS011;8570;52.380;4.654;2024-03-06T17:30:18;27.95;;;21.50;;
16906;SDS011;8570;52.380;4.654;2024-03-06T17:35:21;25.35;;;20.08;;
16906;SDS011;8570;52.380;4.654;2024-03-06T17:40:23;25.95;;;21.05;;
16906;SDS011;8570;52.380;4.654;2024-03-06T17:45:25;29.92;;;22.38;;
16906;SDS011;8570;52.380;4.654;2024-03-06T17:50:29;24.95;;;20.20;;
16906;SDS011;8570;52.380;4.654;2024-03-06T17:55:33;29.55;;;21.42;;
16906;SDS011;8570;52.380;4.654;2024-03-06T18:00:36;27.75;;;21.08;;
16906;SDS011;8570;52.380;4.654;2024-03-06T18:05:39;31.23;;;22.83;;
16906;SDS011;8570;52.380;4.654;2024-03-06T18:10:41;29.67;;;22.88;;
16906;SDS011;8570;52.380;4.654;2024-03-06T18:15:43;31.35;;;23.10;;
16906;SDS011;8570;52.380;4.654;2024-03-06T18:20:46;28.92;;;22.27;;
16906;SDS011;8570;52.380;4.654;2024-03-06T18:25:48;30.98;;;22.42;;
16906;SDS011;8570;52.380;4.654;2024-03-06T18:30:50;34.88;;;24.27;;
16906;SDS011;8570;52.380;4.654;2024-03-06T18:35:53;32.17;;;23.92;;
16906;SDS011;8570;52.380;4.654;2024-03-06T18:40:56;30.42;;;22.98;;
16906;SDS011;8570;52.380;4.654;2024-03-06T18:45:58;30.52;;;22.20;;
16906;SDS011;8570;52.380;4.654;2024-03-06T18:51:01;32.20;;;21.95;;
16906;SDS011;8570;52.380;4.654;2024-03-06T18:56:03;32.55;;;22.05;;
16906;SDS011;8570;52.380;4.654;2024-03-06T19:01:06;30.20;;;23.13;;
16906;SDS011;8570;52.380;4.654;2024-03-06T19:06:11;30.00;;;22.85;;
16906;SDS011;8570;52.380;4.654;2024-03-06T19:11:13;28.98;;;22.15;;
16906;SDS011;8570;52.380;4.654;2024-03-06T19:16:14;29.10;;;20.50;;
16906;SDS011;8570;52.380;4.654;2024-03-06T19:21:18;28.63;;;21.17;;
16906;SDS011;8570;52.380;4.654;2024-03-06T19:26:20;31.98;;;21.50;;
16906;SDS011;8570;52.380;4.654;2024-03-06T19:31:22;27.83;;;20.63;;
16906;SDS011;8570;52.380;4.654;2024-03-06T19:36:25;27.90;;;20.75;;
16906;SDS011;8570;52.380;4.654;2024-03-06T19:41:27;30.00;;;22.05;;
16906;SDS011;8570;52.380;4.654;2024-03-06T19:46:29;31.75;;;22.88;;
16906;SDS011;8570;52.380;4.654;2024-03-06T19:51:32;30.05;;;22.10;;
16906;SDS011;8570;52.380;4.654;2024-03-06T19:56:34;29.63;;;22.30;;
16906;SDS011;8570;52.380;4.654;2024-03-06T20:01:36;32.95;;;21.60;;
16906;SDS011;8570;52.380;4.654;2024-03-06T20:06:39;28.90;;;20.67;;
16906;SDS011;8570;52.380;4.654;2024-03-06T20:11:41;28.42;;;21.55;;
16906;SDS011;8570;52.380;4.654;2024-03-06T20:16:43;32.20;;;21.92;;
16906;SDS011;8570;52.380;4.654;2024-03-06T20:21:46;26.88;;;20.48;;
16906;SDS011;8570;52.380;4.654;2024-03-06T20:26:48;28.02;;;21.65;;
16906;SDS011;8570;52.380;4.654;2024-03-06T20:31:50;27.88;;;21.02;;
16906;SDS011;8570;52.380;4.654;2024-03-06T20:36:54;29.20;;;22.13;;
16906;SDS011;8570;52.380;4.654;2024-03-06T20:41:57;27.93;;;19.93;;
16906;SDS011;8570;52.380;4.654;2024-03-06T20:46:59;32.03;;;21.33;;
16906;SDS011;8570;52.380;4.654;2024-03-06T20:52:03;31.40;;;22.90;;
16906;SDS011;8570;52.380;4.654;2024-03-06T20:57:06;32.67;;;23.13;;
16906;SDS011;8570;52.380;4.654;2024-03-06T21:02:08;30.08;;;21.95;;
16906;SDS011;8570;52.380;4.654;2024-03-06T21:07:11;32.27;;;22.23;;
16906;SDS011;8570;52.380;4.654;2024-03-06T21:12:14;31.63;;;21.63;;
16906;SDS011;8570;52.380;4.654;2024-03-06T21:17:16;34.90;;;23.93;;
16906;SDS011;8570;52.380;4.654;2024-03-06T21:22:28;38.77;;;24.93;;
16906;SDS011;8570;52.380;4.654;2024-03-06T21:27:37;32.67;;;25.17;;
16906;SDS011;8570;52.380;4.654;2024-03-06T21:32:40;38.07;;;24.47;;
16906;SDS011;8570;52.380;4.654;2024-03-06T21:37:46;36.70;;;25.07;;
16906;SDS011;8570;52.380;4.654;2024-03-06T21:42:48;39.43;;;25.97;;
16906;SDS011;8570;52.380;4.654;2024-03-06T21:47:50;37.53;;;25.37;;
16906;SDS011;8570;52.380;4.654;2024-03-06T21:52:53;39.63;;;24.90;;
16906;SDS011;8570;52.380;4.654;2024-03-06T21:57:57;41.17;;;26.57;;
16906;SDS011;8570;52.380;4.654;2024-03-06T22:02:59;36.00;;;26.30;;
16906;SDS011;8570;52.380;4.654;2024-03-06T22:08:03;38.13;;;25.70;;
16906;SDS011;8570;52.380;4.654;2024-03-06T22:13:07;36.97;;;25.37;;
16906;SDS011;8570;52.380;4.654;2024-03-06T22:18:09;39.30;;;25.47;;
16906;SDS011;8570;52.380;4.654;2024-03-06T22:23:12;37.47;;;26.10;;
16906;SDS011;8570;52.380;4.654;2024-03-06T22:28:16;38.50;;;26.07;;
16906;SDS011;8570;52.380;4.654;2024-03-06T22:33:18;41.30;;;26.63;;
16906;SDS011;8570;52.380;4.654;2024-03-06T22:38:22;40.10;;;26.70;;
16906;SDS011;8570;52.380;4.654;2024-03-06T22:43:24;42.00;;;29.13;;
16906;SDS011;8570;52.380;4.654;2024-03-06T22:48:26;43.77;;;28.87;;
16906;SDS011;8570;52.380;4.654;2024-03-06T22:53:31;35.83;;;26.30;;
16906;SDS011;8570;52.380;4.654;2024-03-06T22:58:33;37.43;;;26.90;;
16906;SDS011;8570;52.380;4.654;2024-03-06T23:03:37;39.67;;;28.07;;
16906;SDS011;8570;52.380;4.654;2024-03-06T23:08:40;44.03;;;28.40;;
16906;SDS011;8570;52.380;4.654;2024-03-06T23:13:46;39.73;;;27.97;;
16906;SDS011;8570;52.380;4.654;2024-03-06T23:18:48;37.47;;;27.73;;
16906;SDS011;8570;52.380;4.654;2024-03-06T23:23:57;46.00;;;30.23;;
16906;SDS011;8570;52.380;4.654;2024-03-06T23:29:00;42.93;;;28.33;;
16906;SDS011;8570;52.380;4.654;2024-03-06T23:34:04;38.80;;;26.90;;
16906;SDS011;8570;52.380;4.654;2024-03-06T23:39:08;41.53;;;28.10;;
16906;SDS011;8570;52.380;4.654;2024-03-06T23:44:10;43.43;;;27.70;;
16906;SDS011;8570;52.380;4.654;2024-03-06T23:49:13;41.73;;;27.63;;
16906;SDS011;8570;52.380;4.654;2024-03-06T23:54:19;40.53;;;27.87;;
16906;SDS011;8570;52.380;4.654;2024-03-06T23:59:21;40.50;;;27.93;;
